Ride Results

NoWhere Creek (21-04-2007)
Ride distance: 80.0 km

Outcomes - NoWhere Creek (21-04-2007)
Division No. of Entries Retired / DNE Completed Withdrawn Ineligible V/O Percentage Completed
HW 7 - 4 - - 3 57.14%
MW 18 - 12 2 - 4 66.67%
LW 12 - 9 1 - 2 75.00%
JN 6 - 5 - - 1 83.33%
Totals 43 - 30 3 - 10 69.77%
Results - NoWhere Creek (21-04-2007)
No. Rider Horse Place Time Leg Speeds Total
Km/Hr
H/R bpm
Heavyweight
82 Jarrod Robinson Devonwood Fame N Fortune 1 5:38:00 15.0, 13.4 14.20 33, 42, 53 (Avg:47)
76 Russell Robinson Lew-Oak Ahmad 1 5:38:00 15.0, 13.4 14.20 48, 48, 60 (Avg:54)
94 Luke Steele Shadrach 3 7:41:00 11.3, 9.6 10.41 32, 40, 55 (Avg:47)
115 Rod Mills Avondale Jay 4 7:51:00 11.2, 9.3 10.19 34, 49, 54 (Avg:51)
850 Digger Leehane Shah Lame L2 0:00:00 13.0, 11.2 - 28, 40, 48 (Avg:44)
96 Gail Pattison McKenlyn Park Celestine Lame L2 0:00:00 13.3, 239.9 - 34, 49, 47 (Avg:48)
7 Robert Punicki Aratahnes Tribute Heart Rate L2 0:00:00 10.9, 9.5 - 29, 40, 68 (Avg:54)
Middleweight
881 Gordon Wallace Menora Fine Figure 1 5:38:00 16.9, 12.2 14.20 28, 39, 48 (Avg:43)
142 Jan Scholes Gayland Mariah 2 5:42:00 13.9, 14.1 14.04 31, 39, 42 (Avg:40)
69 Sue Cavill Koonwarra Kavalier 3 5:54:00 14.6, 12.6 13.56 33, 41, 44 (Avg:42)
75 Lisa Johnston Soliloquy 3 5:54:00 14.6, 12.6 13.56 41, 47, 56 (Avg:51)
84 Kristie Taprell Tierview Maverick 5 6:24:00 12.9, 12.1 12.50 32, 42, 49 (Avg:45)
54 Rowena McLean Lynandra Park Trinity 6 6:37:00 14.1, 10.5 12.09 28, 47, 54 (Avg:50)
872 Barry Sinclair Chipawood Micah 7 7:01:00 13.0, 10.1 11.40 39, 48, 60 (Avg:54)
67 John Osboldstone Dowling Mourad 8 7:03:00 11.3, 11.3 11.35 32, 44, 53 (Avg:48)
100 Fay Bushby Nurelee Shakeel 9 7:36:00 11.3, 9.8 10.53 37, 50, 54 (Avg:52)
89 Sheryl Herbert Krishlah Maleeka 10 7:41:00 11.1, 9.7 10.41 33, 44, 51 (Avg:47)
181 Sharee Court Just Kira 11 7:49:00 10.6, 9.8 10.23 35, 42, 49 (Avg:45)
70 Fiona Passarin Coranderrk Edison 12 8:00:00 11.2, 9.0 10.00 40, 45, 57 (Avg:51)
860 Vicki Norman Mazzamataz Lame L2 0:00:00 12.9, 12.1 - 35, 47, 60 (Avg:53)
126 Wendy Riha Eastern Park The Duke Heart Rate L2 0:00:00 12.9, 12.1 - 41, 54, 66 (Avg:60)
848 Gail Pound TB Kyneton Withdrawn L1 0:00:00 - - 34, 45 (Avg:45)
110 Alan Salter Illawarra Duke Lame L1 0:00:00 13.3 - 37, 50 (Avg:50)
11 Rohan Stanes Misarra Silver Prince Withdrawn L1 0:00:00 - - 31, 44 (Avg:44)
13 Linda Tanian Castlebar Caro Lame L1 0:00:00 12.9 - 31, 36 (Avg:36)
Lightweight
852 Erin Reid Brave Geronimo 1 5:39:00 13.9, 14.3 14.16 36, 39, 45 (Avg:42)
857 Trish Reeves Lucas 2 6:17:00 14.0, 11.6 12.73 36, 49, 57 (Avg:53)
12 Chelsea Miller Castlebar Oslo 3 6:24:00 12.9, 12.1 12.50 33, 42, 50 (Avg:46)
35 Anne-Marie Conroy Warrawee Mazhar 4 6:37:00 14.2, 10.5 12.09 34, 40, 46 (Avg:43)
859 Nicky Robinson Sterling Nakeeta 5 7:01:00 12.8, 10.2 11.40 42, 47, 57 (Avg:52)
47 Leanne Hulstaert Pyrenees Phenomenon 6 7:36:00 11.3, 9.8 10.53 29, 52, 45 (Avg:48)
855 Fiona Hodges Belmont Park Rhapsody in Blue 7 7:50:00 10.9, 9.5 10.21 36, 47, 60 (Avg:53)
856 Kelly Jol Scrupulous 7 7:50:00 11.1, 9.4 10.21 36, 47, 49 (Avg:48)
885 Michelle Beekmans Kazoo Park Avis 9 8:00:00 11.2, 9.0 10.00 43, 42, 59 (Avg:50)
888 Sandy Hamilton Musk Creek Special Heart Rate L2 0:00:00 12.9, 12.1 - 41, 48, 64 (Avg:56)
91 Kim Noble Roheryn Park Khaleef Lame L1 0:00:00 13.3 - 30, 40 (Avg:40)
23 Brittnee Smith Jilnelan Park Shanae Sharna Withdrawn L1 0:00:00 - - 36, 44 (Avg:44)
Junior
88 Tahnee Lee Max 1 5:37:00 13.9, 14.5 14.24 37, 40, 47 (Avg:43)
851 Jesse McKinnon Sandine Belcoo 2 5:39:00 13.9, 14.3 14.16 32, 39, 43 (Avg:41)
140 Samantha Cubbin Clovelly Park Kimba 3 5:42:00 13.9, 14.1 14.04 34, 39, 45 (Avg:42)
90 Samantha Noble Springridge Bungendore 4 6:44:00 13.3, 10.7 11.88 32, 38, 40 (Avg:39)
849 Kaitlin Sidlouskas Kanavor Kassan 5 7:49:00 10.6, 9.8 10.23 36, 49, 59 (Avg:54)
861 Stevie-lyn Oborne Zhara Lame L2 0:00:00 13.3, 10.7 - 35, 45, 53 (Avg:49)